sensor_id;sensor_type;location;lat;lon;timestamp;pressure;altitude;pressure_sealevel;temperature;humidity
50011;BME280;35899;50.352;19.390;2023-04-06T00:02:17;98133.33;;;-2.09;63.58
50011;BME280;35899;50.352;19.390;2023-04-06T00:04:44;98137.08;;;-2.11;63.72
50011;BME280;35899;50.352;19.390;2023-04-06T00:07:12;98129.83;;;-2.13;63.99
50011;BME280;35899;50.352;19.390;2023-04-06T00:09:40;98130.50;;;-2.12;63.99
50011;BME280;35899;50.352;19.390;2023-04-06T00:12:08;98124.89;;;-2.12;63.83
50011;BME280;35899;50.352;19.390;2023-04-06T00:14:37;98128.64;;;-2.12;63.86
50011;BME280;35899;50.352;19.390;2023-04-06T00:17:05;98126.45;;;-2.14;63.69
50011;BME280;35899;50.352;19.390;2023-04-06T00:19:32;98125.65;;;-2.17;63.68
50011;BME280;35899;50.352;19.390;2023-04-06T00:22:00;98122.48;;;-2.20;63.79
50011;BME280;35899;50.352;19.390;2023-04-06T00:24:28;98121.02;;;-2.24;63.73
50011;BME280;35899;50.352;19.390;2023-04-06T00:26:56;98120.56;;;-2.27;63.72
50011;BME280;35899;50.352;19.390;2023-04-06T00:29:24;98118.41;;;-2.31;63.81
50011;BME280;35899;50.352;19.390;2023-04-06T00:31:51;98117.61;;;-2.34;63.69
50011;BME280;35899;50.352;19.390;2023-04-06T00:34:19;98120.05;;;-2.38;63.67
50011;BME280;35899;50.352;19.390;2023-04-06T00:36:47;98116.20;;;-2.41;63.77
50011;BME280;35899;50.352;19.390;2023-04-06T00:39:15;98116.56;;;-2.44;63.84
50011;BME280;35899;50.352;19.390;2023-04-06T00:41:46;98115.56;;;-2.45;63.85
50011;BME280;35899;50.352;19.390;2023-04-06T00:44:18;98114.73;;;-2.46;63.97
50011;BME280;35899;50.352;19.390;2023-04-06T00:46:46;98114.56;;;-2.45;64.23
50011;BME280;35899;50.352;19.390;2023-04-06T00:49:14;98113.71;;;-2.46;64.41
50011;BME280;35899;50.352;19.390;2023-04-06T00:51:42;98111.86;;;-2.46;64.50
50011;BME280;35899;50.352;19.390;2023-04-06T00:54:09;98110.48;;;-2.46;64.51
50011;BME280;35899;50.352;19.390;2023-04-06T00:56:37;98106.60;;;-2.46;64.58
50011;BME280;35899;50.352;19.390;2023-04-06T00:59:05;98106.30;;;-2.48;64.66
50011;BME280;35899;50.352;19.390;2023-04-06T01:01:33;98108.37;;;-2.50;64.70
50011;BME280;35899;50.352;19.390;2023-04-06T01:04:05;98110.10;;;-2.53;64.80
50011;BME280;35899;50.352;19.390;2023-04-06T01:06:38;98109.80;;;-2.56;64.81
50011;BME280;35899;50.352;19.390;2023-04-06T01:09:06;98108.48;;;-2.58;64.87
50011;BME280;35899;50.352;19.390;2023-04-06T01:11:35;98110.89;;;-2.61;64.81
50011;BME280;35899;50.352;19.390;2023-04-06T01:14:04;98109.20;;;-2.62;64.94
50011;BME280;35899;50.352;19.390;2023-04-06T01:16:45;98108.88;;;-2.62;65.16
50011;BME280;35899;50.352;19.390;2023-04-06T01:19:18;98109.02;;;-2.62;65.28
50011;BME280;35899;50.352;19.390;2023-04-06T01:21:50;98110.73;;;-2.61;65.18
50011;BME280;35899;50.352;19.390;2023-04-06T01:24:24;98106.16;;;-2.61;65.24
50011;BME280;35899;50.352;19.390;2023-04-06T01:27:01;98105.98;;;-2.61;65.30
50011;BME280;35899;50.352;19.390;2023-04-06T01:29:36;98108.69;;;-2.61;65.33
50011;BME280;35899;50.352;19.390;2023-04-06T01:32:05;98108.02;;;-2.61;65.39
50011;BME280;35899;50.352;19.390;2023-04-06T01:34:36;98102.47;;;-2.63;65.35
50011;BME280;35899;50.352;19.390;2023-04-06T01:37:05;98099.61;;;-2.66;65.33
50011;BME280;35899;50.352;19.390;2023-04-06T01:39:33;98097.98;;;-2.70;65.31
50011;BME280;35899;50.352;19.390;2023-04-06T01:42:01;98094.84;;;-2.75;65.41
50011;BME280;35899;50.352;19.390;2023-04-06T01:44:31;98091.02;;;-2.81;65.41
50011;BME280;35899;50.352;19.390;2023-04-06T01:47:08;98090.25;;;-2.87;65.48
50011;BME280;35899;50.352;19.390;2023-04-06T01:49:36;98091.52;;;-2.93;65.49
50011;BME280;35899;50.352;19.390;2023-04-06T01:52:04;98087.88;;;-2.99;65.49
50011;BME280;35899;50.352;19.390;2023-04-06T01:54:34;98090.13;;;-3.03;65.59
50011;BME280;35899;50.352;19.390;2023-04-06T01:57:15;98088.98;;;-3.07;65.57
50011;BME280;35899;50.352;19.390;2023-04-06T01:59:50;98089.20;;;-3.10;65.60
50011;BME280;35899;50.352;19.390;2023-04-06T02:02:39;98085.02;;;-3.13;65.90
50011;BME280;35899;50.352;19.390;2023-04-06T02:05:12;98082.33;;;-3.15;65.91
50011;BME280;35899;50.352;19.390;2023-04-06T02:07:41;98082.17;;;-3.16;66.09
50011;BME280;35899;50.352;19.390;2023-04-06T02:10:13;98080.50;;;-3.18;66.02
50011;BME280;35899;50.352;19.390;2023-04-06T02:12:42;98076.48;;;-3.21;66.02
50011;BME280;35899;50.352;19.390;2023-04-06T02:15:13;98077.52;;;-3.23;66.16
50011;BME280;35899;50.352;19.390;2023-04-06T02:17:41;98078.56;;;-3.25;66.37
50011;BME280;35899;50.352;19.390;2023-04-06T02:20:09;98082.31;;;-3.27;66.55
50011;BME280;35899;50.352;19.390;2023-04-06T02:22:37;98079.46;;;-3.30;66.62
50011;BME280;35899;50.352;19.390;2023-04-06T02:25:05;98080.00;;;-3.31;66.64
50011;BME280;35899;50.352;19.390;2023-04-06T02:27:33;98079.51;;;-3.33;66.71
50011;BME280;35899;50.352;19.390;2023-04-06T02:30:01;98078.16;;;-3.33;66.95
50011;BME280;35899;50.352;19.390;2023-04-06T02:32:29;98076.47;;;-3.34;66.91
50011;BME280;35899;50.352;19.390;2023-04-06T02:34:58;98074.96;;;-3.36;67.02
50011;BME280;35899;50.352;19.390;2023-04-06T02:37:26;98075.82;;;-3.36;66.93
50011;BME280;35899;50.352;19.390;2023-04-06T02:39:54;98075.33;;;-3.37;66.96
50011;BME280;35899;50.352;19.390;2023-04-06T02:42:22;98072.13;;;-3.38;66.99
50011;BME280;35899;50.352;19.390;2023-04-06T02:44:53;98073.50;;;-3.40;67.18
50011;BME280;35899;50.352;19.390;2023-04-06T02:47:24;98075.37;;;-3.41;67.07
50011;BME280;35899;50.352;19.390;2023-04-06T02:49:52;98079.61;;;-3.42;67.24
50011;BME280;35899;50.352;19.390;2023-04-06T02:52:20;98075.56;;;-3.43;67.32
50011;BME280;35899;50.352;19.390;2023-04-06T02:54:48;98080.30;;;-3.43;67.18
50011;BME280;35899;50.352;19.390;2023-04-06T02:57:19;98086.23;;;-3.44;67.39
50011;BME280;35899;50.352;19.390;2023-04-06T02:59:46;98087.95;;;-3.46;67.55
50011;BME280;35899;50.352;19.390;2023-04-06T03:02:25;98087.49;;;-3.51;67.52
50011;BME280;35899;50.352;19.390;2023-04-06T03:04:56;98085.17;;;-3.55;67.57
50011;BME280;35899;50.352;19.390;2023-04-06T03:07:29;98076.20;;;-3.54;67.84
50011;BME280;35899;50.352;19.390;2023-04-06T03:09:56;98085.30;;;-3.52;67.83
50011;BME280;35899;50.352;19.390;2023-04-06T03:12:24;98080.59;;;-3.54;67.92
50011;BME280;35899;50.352;19.390;2023-04-06T03:15:14;98085.69;;;-3.55;67.89
50011;BME280;35899;50.352;19.390;2023-04-06T03:17:46;98079.64;;;-3.59;68.00
50011;BME280;35899;50.352;19.390;2023-04-06T03:20:36;98082.69;;;-3.61;67.98
50011;BME280;35899;50.352;19.390;2023-04-06T03:23:04;98080.67;;;-3.61;68.14
50011;BME280;35899;50.352;19.390;2023-04-06T03:25:35;98081.68;;;-3.62;68.21
50011;BME280;35899;50.352;19.390;2023-04-06T03:28:05;98085.73;;;-3.62;68.17
50011;BME280;35899;50.352;19.390;2023-04-06T03:30:37;98087.79;;;-3.63;68.31
50011;BME280;35899;50.352;19.390;2023-04-06T03:33:05;98092.20;;;-3.63;68.39
50011;BME280;35899;50.352;19.390;2023-04-06T03:35:37;98090.67;;;-3.64;68.52
50011;BME280;35899;50.352;19.390;2023-04-06T03:38:05;98092.40;;;-3.66;68.54
50011;BME280;35899;50.352;19.390;2023-04-06T03:40:33;98092.23;;;-3.68;68.61
50011;BME280;35899;50.352;19.390;2023-04-06T03:43:01;98090.21;;;-3.68;68.62
50011;BME280;35899;50.352;19.390;2023-04-06T03:45:30;98092.41;;;-3.67;68.66
50011;BME280;35899;50.352;19.390;2023-04-06T03:47:57;98093.75;;;-3.67;68.75
50011;BME280;35899;50.352;19.390;2023-04-06T03:50:25;98092.58;;;-3.67;68.71
50011;BME280;35899;50.352;19.390;2023-04-06T03:52:53;98094.27;;;-3.67;68.83
50011;BME280;35899;50.352;19.390;2023-04-06T03:55:21;98097.16;;;-3.68;68.83
50011;BME280;35899;50.352;19.390;2023-04-06T03:57:49;98095.64;;;-3.69;68.82
50011;BME280;35899;50.352;19.390;2023-04-06T04:00:18;98099.70;;;-3.70;69.01
50011;BME280;35899;50.352;19.390;2023-04-06T04:02:47;98097.69;;;-3.70;69.04
50011;BME280;35899;50.352;19.390;2023-04-06T04:05:15;98100.40;;;-3.71;69.15
50011;BME280;35899;50.352;19.390;2023-04-06T04:07:43;98098.70;;;-3.70;69.23
50011;BME280;35899;50.352;19.390;2023-04-06T04:10:12;98098.52;;;-3.70;69.23
50011;BME280;35899;50.352;19.390;2023-04-06T04:12:39;98093.59;;;-3.68;69.37
50011;BME280;35899;50.352;19.390;2023-04-06T04:15:08;98094.41;;;-3.65;69.44
50011;BME280;35899;50.352;19.390;2023-04-06T04:17:36;98096.92;;;-3.63;69.30
50011;BME280;35899;50.352;19.390;2023-04-06T04:20:05;98096.40;;;-3.62;69.35
50011;BME280;35899;50.352;19.390;2023-04-06T04:22:34;98093.52;;;-3.60;69.26
50011;BME280;35899;50.352;19.390;2023-04-06T04:25:02;98094.84;;;-3.58;69.27
50011;BME280;35899;50.352;19.390;2023-04-06T04:27:31;98092.92;;;-3.53;69.34
50011;BME280;35899;50.352;19.390;2023-04-06T04:29:59;98093.73;;;-3.49;69.47
50011;BME280;35899;50.352;19.390;2023-04-06T04:32:26;98090.45;;;-3.44;69.46
50011;BME280;35899;50.352;19.390;2023-04-06T04:34:55;98092.24;;;-3.37;69.49
50011;BME280;35899;50.352;19.390;2023-04-06T04:37:32;98094.52;;;-3.30;69.39
50011;BME280;35899;50.352;19.390;2023-04-06T04:40:00;98092.39;;;-3.21;69.54
50011;BME280;35899;50.352;19.390;2023-04-06T04:42:30;98090.76;;;-3.13;69.50
50011;BME280;35899;50.352;19.390;2023-04-06T04:44:59;98089.11;;;-3.04;69.38
50011;BME280;35899;50.352;19.390;2023-04-06T04:47:32;98085.63;;;-2.96;69.44
50011;BME280;35899;50.352;19.390;2023-04-06T04:50:00;98086.56;;;-2.90;69.46
50011;BME280;35899;50.352;19.390;2023-04-06T04:52:32;98090.35;;;-2.81;69.37
50011;BME280;35899;50.352;19.390;2023-04-06T04:55:14;98089.19;;;-2.71;69.48
50011;BME280;35899;50.352;19.390;2023-04-06T04:57:43;98090.24;;;-2.62;69.41
50011;BME280;35899;50.352;19.390;2023-04-06T05:00:12;98093.00;;;-2.54;69.32
50011;BME280;35899;50.352;19.390;2023-04-06T05:02:41;98089.46;;;-2.45;69.23
50011;BME280;35899;50.352;19.390;2023-04-06T05:05:29;98090.84;;;-2.35;69.34
50011;BME280;35899;50.352;19.390;2023-04-06T05:07:57;98086.66;;;-2.27;69.20
50011;BME280;35899;50.352;19.390;2023-04-06T05:10:40;98080.73;;;-2.18;69.15
50011;BME280;35899;50.352;19.390;2023-04-06T05:13:08;98082.13;;;-2.10;69.24
50011;BME280;35899;50.352;19.390;2023-04-06T05:15:36;98081.52;;;-2.03;69.12
50011;BME280;35899;50.352;19.390;2023-04-06T05:18:10;98083.57;;;-1.95;69.10
50011;BME280;35899;50.352;19.390;2023-04-06T05:20:42;98078.70;;;-1.87;68.95
50011;BME280;35899;50.352;19.390;2023-04-06T05:23:11;98082.12;;;-1.81;68.62
50011;BME280;35899;50.352;19.390;2023-04-06T05:25:42;98084.23;;;-1.74;68.71
50011;BME280;35899;50.352;19.390;2023-04-06T05:28:15;98089.21;;;-1.69;68.62
50011;BME280;35899;50.352;19.390;2023-04-06T05:30:44;98088.12;;;-1.65;68.40
50011;BME280;35899;50.352;19.390;2023-04-06T05:33:12;98081.02;;;-1.57;68.47
50011;BME280;35899;50.352;19.390;2023-04-06T05:36:16;98077.80;;;-1.48;68.43
50011;BME280;35899;50.352;19.390;2023-04-06T05:38:46;98075.80;;;-1.42;68.29
50011;BME280;35899;50.352;19.390;2023-04-06T05:41:29;98074.81;;;-1.34;68.33
50011;BME280;35899;50.352;19.390;2023-04-06T05:43:57;98076.52;;;-1.26;68.21
50011;BME280;35899;50.352;19.390;2023-04-06T05:46:25;98076.12;;;-1.15;68.05
50011;BME280;35899;50.352;19.390;2023-04-06T05:48:54;98075.71;;;-1.04;67.85
50011;BME280;35899;50.352;19.390;2023-04-06T05:51:25;98074.57;;;-0.90;67.79
50011;BME280;35899;50.352;19.390;2023-04-06T05:53:52;98073.28;;;-0.78;67.42
50011;BME280;35899;50.352;19.390;2023-04-06T05:56:21;98072.34;;;-0.66;67.42
50011;BME280;35899;50.352;19.390;2023-04-06T05:58:52;98072.56;;;-0.53;67.14
50011;BME280;35899;50.352;19.390;2023-04-06T06:01:25;98073.63;;;-0.40;67.13
50011;BME280;35899;50.352;19.390;2023-04-06T06:03:53;98074.85;;;-0.28;66.99
50011;BME280;35899;50.352;19.390;2023-04-06T06:06:22;98070.08;;;-0.13;66.53
50011;BME280;35899;50.352;19.390;2023-04-06T06:09:13;98069.98;;;0.05;66.58
50011;BME280;35899;50.352;19.390;2023-04-06T06:11:50;98069.84;;;0.23;66.28
50011;BME280;35899;50.352;19.390;2023-04-06T06:14:18;98066.02;;;0.38;66.06
50011;BME280;35899;50.352;19.390;2023-04-06T06:16:49;98065.46;;;0.58;66.06
50011;BME280;35899;50.352;19.390;2023-04-06T06:19:17;98064.77;;;0.77;65.67
50011;BME280;35899;50.352;19.390;2023-04-06T06:21:46;98068.02;;;0.95;65.37
50011;BME280;35899;50.352;19.390;2023-04-06T06:24:15;98067.63;;;1.14;65.28
50011;BME280;35899;50.352;19.390;2023-04-06T06:26:45;98070.23;;;1.30;64.21
50011;BME280;35899;50.352;19.390;2023-04-06T06:29:16;98072.08;;;1.42;63.64
50011;BME280;35899;50.352;19.390;2023-04-06T06:31:45;98072.33;;;1.45;62.34
50011;BME280;35899;50.352;19.390;2023-04-06T06:34:16;98072.13;;;1.45;62.06
50011;BME280;35899;50.352;19.390;2023-04-06T06:36:45;98070.77;;;1.56;62.42
50011;BME280;35899;50.352;19.390;2023-04-06T06:39:16;98068.23;;;1.77;62.64
50011;BME280;35899;50.352;19.390;2023-04-06T06:41:45;98063.45;;;1.98;61.67
50011;BME280;35899;50.352;19.390;2023-04-06T06:44:25;98063.33;;;2.17;62.13
50011;BME280;35899;50.352;19.390;2023-04-06T06:47:09;98062.67;;;2.46;61.31
50011;BME280;35899;50.352;19.390;2023-04-06T06:49:55;98065.44;;;2.55;60.48
50011;BME280;35899;50.352;19.390;2023-04-06T06:52:42;98063.19;;;2.70;61.06
50011;BME280;35899;50.352;19.390;2023-04-06T06:55:15;98064.40;;;2.83;60.64
50011;BME280;35899;50.352;19.390;2023-04-06T06:58:04;98063.48;;;2.94;60.92
50011;BME280;35899;50.352;19.390;2023-04-06T07:00:38;98062.13;;;3.08;60.23
50011;BME280;35899;50.352;19.390;2023-04-06T07:03:45;98065.36;;;3.08;59.57
50011;BME280;35899;50.352;19.390;2023-04-06T07:06:27;98067.48;;;3.06;59.20
50011;BME280;35899;50.352;19.390;2023-04-06T07:09:01;98067.92;;;2.94;57.48
50011;BME280;35899;50.352;19.390;2023-04-06T07:11:32;98069.39;;;2.78;57.25
50011;BME280;35899;50.352;19.390;2023-04-06T07:14:27;98073.20;;;2.62;57.33
50011;BME280;35899;50.352;19.390;2023-04-06T07:19:58;98073.89;;;2.57;57.69
50011;BME280;35899;50.352;19.390;2023-04-06T07:22:37;98071.94;;;2.49;57.46
50011;BME280;35899;50.352;19.390;2023-04-06T07:25:17;98076.03;;;2.35;56.38
50011;BME280;35899;50.352;19.390;2023-04-06T07:27:56;98077.07;;;2.10;55.42
50011;BME280;35899;50.352;19.390;2023-04-06T07:30:30;98077.15;;;1.97;55.98
50011;BME280;35899;50.352;19.390;2023-04-06T07:33:00;98076.79;;;1.97;56.39
50011;BME280;35899;50.352;19.390;2023-04-06T07:35:29;98077.28;;;2.04;56.80
50011;BME280;35899;50.352;19.390;2023-04-06T07:37:57;98076.45;;;2.08;56.33
50011;BME280;35899;50.352;19.390;2023-04-06T07:40:25;98078.45;;;2.04;55.64
50011;BME280;35899;50.352;19.390;2023-04-06T07:42:53;98080.31;;;2.05;56.45
50011;BME280;35899;50.352;19.390;2023-04-06T07:45:26;98079.55;;;2.12;56.68
50011;BME280;35899;50.352;19.390;2023-04-06T07:47:55;98079.58;;;2.16;56.70
50011;BME280;35899;50.352;19.390;2023-04-06T07:50:24;98075.48;;;2.16;56.41
50011;BME280;35899;50.352;19.390;2023-04-06T07:52:52;98073.42;;;2.16;56.37
50011;BME280;35899;50.352;19.390;2023-04-06T07:55:23;98075.37;;;2.24;56.64
50011;BME280;35899;50.352;19.390;2023-04-06T07:57:56;98070.71;;;2.31;55.82
50011;BME280;35899;50.352;19.390;2023-04-06T08:00:25;98076.90;;;2.25;54.88
50011;BME280;35899;50.352;19.390;2023-04-06T08:03:12;98075.00;;;2.20;54.86
50011;BME280;35899;50.352;19.390;2023-04-06T08:05:41;98073.19;;;2.23;54.89
50011;BME280;35899;50.352;19.390;2023-04-06T08:08:09;98077.86;;;2.26;54.38
50011;BME280;35899;50.352;19.390;2023-04-06T08:10:38;98080.80;;;2.20;53.88
50011;BME280;35899;50.352;19.390;2023-04-06T08:13:06;98078.78;;;2.14;53.75
50011;BME280;35899;50.352;19.390;2023-04-06T08:15:34;98082.02;;;2.09;53.98
50011;BME280;35899;50.352;19.390;2023-04-06T08:18:02;98083.22;;;2.09;54.37
50011;BME280;35899;50.352;19.390;2023-04-06T08:20:30;98077.39;;;2.21;55.08
50011;BME280;35899;50.352;19.390;2023-04-06T08:22:58;98081.70;;;2.34;55.01
50011;BME280;35899;50.352;19.390;2023-04-06T08:25:26;98080.96;;;2.41;54.79
50011;BME280;35899;50.352;19.390;2023-04-06T08:27:55;98076.17;;;2.41;54.33
50011;BME280;35899;50.352;19.390;2023-04-06T08:30:22;98073.86;;;2.39;53.35
50011;BME280;35899;50.352;19.390;2023-04-06T08:32:50;98069.94;;;2.43;53.95
50011;BME280;35899;50.352;19.390;2023-04-06T08:35:18;98063.45;;;2.62;54.30
50011;BME280;35899;50.352;19.390;2023-04-06T08:37:46;98064.06;;;2.79;53.18
50011;BME280;35899;50.352;19.390;2023-04-06T08:40:14;98059.02;;;2.95;53.16
50011;BME280;35899;50.352;19.390;2023-04-06T08:42:44;98060.73;;;3.09;53.28
50011;BME280;35899;50.352;19.390;2023-04-06T08:45:17;98054.64;;;3.29;53.55
50011;BME280;35899;50.352;19.390;2023-04-06T08:47:45;98052.35;;;3.57;53.26
50011;BME280;35899;50.352;19.390;2023-04-06T08:50:14;98050.50;;;3.86;53.25
50011;BME280;35899;50.352;19.390;2023-04-06T08:52:49;98049.55;;;4.09;52.74
50011;BME280;35899;50.352;19.390;2023-04-06T08:55:17;98048.20;;;4.21;52.03
50011;BME280;35899;50.352;19.390;2023-04-06T08:57:45;98037.73;;;4.30;52.21
50011;BME280;35899;50.352;19.390;2023-04-06T09:00:14;98032.73;;;4.30;51.00
50011;BME280;35899;50.352;19.390;2023-04-06T09:02:43;98034.71;;;4.24;50.12
50011;BME280;35899;50.352;19.390;2023-04-06T09:05:13;98028.95;;;4.31;50.18
50011;BME280;35899;50.352;19.390;2023-04-06T09:07:41;98022.70;;;4.67;50.89
50011;BME280;35899;50.352;19.390;2023-04-06T09:10:10;98021.37;;;4.97;50.69
50011;BME280;35899;50.352;19.390;2023-04-06T09:12:43;98020.85;;;5.01;49.31
50011;BME280;35899;50.352;19.390;2023-04-06T09:15:19;98021.08;;;5.04;49.67
50011;BME280;35899;50.352;19.390;2023-04-06T09:17:53;98019.16;;;5.01;48.56
50011;BME280;35899;50.352;19.390;2023-04-06T09:20:22;98019.47;;;5.01;48.41
50011;BME280;35899;50.352;19.390;2023-04-06T09:22:52;98020.69;;;5.04;49.02
50011;BME280;35899;50.352;19.390;2023-04-06T09:25:21;98018.33;;;5.22;49.20
50011;BME280;35899;50.352;19.390;2023-04-06T09:27:58;98014.43;;;5.50;48.89
50011;BME280;35899;50.352;19.390;2023-04-06T09:30:48;98013.83;;;5.59;47.69
50011;BME280;35899;50.352;19.390;2023-04-06T09:33:29;98016.77;;;5.41;46.81
50011;BME280;35899;50.352;19.390;2023-04-06T09:36:00;98012.45;;;5.27;47.12
50011;BME280;35899;50.352;19.390;2023-04-06T09:38:56;98000.19;;;5.28;47.60
50011;BME280;35899;50.352;19.390;2023-04-06T09:41:36;98001.69;;;5.22;47.25
50011;BME280;35899;50.352;19.390;2023-04-06T09:44:06;98002.50;;;5.01;46.42
50011;BME280;35899;50.352;19.390;2023-04-06T09:46:43;97998.63;;;4.81;46.95
50011;BME280;35899;50.352;19.390;2023-04-06T09:49:39;97996.64;;;4.79;47.59
50011;BME280;35899;50.352;19.390;2023-04-06T09:52:07;97999.79;;;4.89;47.92
50011;BME280;35899;50.352;19.390;2023-04-06T09:54:38;97996.48;;;5.13;48.15
50011;BME280;35899;50.352;19.390;2023-04-06T09:57:07;97992.92;;;5.26;47.20
50011;BME280;35899;50.352;19.390;2023-04-06T10:02:27;97988.14;;;5.29;46.90
50011;BME280;35899;50.352;19.390;2023-04-06T10:05:21;97993.00;;;5.39;47.15
50011;BME280;35899;50.352;19.390;2023-04-06T10:07:47;97997.10;;;5.50;46.92
50011;BME280;35899;50.352;19.390;2023-04-06T10:10:23;97994.96;;;5.52;46.23
50011;BME280;35899;50.352;19.390;2023-04-06T10:12:54;97995.39;;;5.46;46.04
50011;BME280;35899;50.352;19.390;2023-04-06T10:15:28;97993.21;;;5.60;46.73
50011;BME280;35899;50.352;19.390;2023-04-06T10:17:57;97986.29;;;5.67;46.81
50011;BME280;35899;50.352;19.390;2023-04-06T10:20:27;97984.06;;;5.71;46.78
50011;BME280;35899;50.352;19.390;2023-04-06T10:23:08;97984.15;;;5.69;46.39
50011;BME280;35899;50.352;19.390;2023-04-06T10:29:02;97978.30;;;5.41;46.86
50011;BME280;35899;50.352;19.390;2023-04-06T10:31:30;97981.83;;;5.18;45.80
50011;BME280;35899;50.352;19.390;2023-04-06T10:34:03;97977.69;;;4.92;46.66
50011;BME280;35899;50.352;19.390;2023-04-06T10:36:34;97976.77;;;4.90;46.80
50011;BME280;35899;50.352;19.390;2023-04-06T10:39:03;97971.80;;;4.79;46.42
50011;BME280;35899;50.352;19.390;2023-04-06T10:41:36;97973.23;;;4.70;46.33
50011;BME280;35899;50.352;19.390;2023-04-06T10:44:07;97967.94;;;4.65;47.26
50011;BME280;35899;50.352;19.390;2023-04-06T10:46:41;97962.44;;;4.81;47.55
50011;BME280;35899;50.352;19.390;2023-04-06T10:49:19;97960.84;;;5.05;47.69
50011;BME280;35899;50.352;19.390;2023-04-06T10:51:53;97957.95;;;5.22;47.86
50011;BME280;35899;50.352;19.390;2023-04-06T10:54:24;97953.36;;;5.32;47.52
50011;BME280;35899;50.352;19.390;2023-04-06T10:56:52;97954.44;;;5.27;47.37
50011;BME280;35899;50.352;19.390;2023-04-06T10:59:20;97957.96;;;5.18;46.44
50011;BME280;35899;50.352;19.390;2023-04-06T11:04:38;97952.40;;;5.34;46.50
50011;BME280;35899;50.352;19.390;2023-04-06T11:07:22;97950.38;;;5.61;46.83
50011;BME280;35899;50.352;19.390;2023-04-06T11:09:50;97939.77;;;6.02;46.55
50011;BME280;35899;50.352;19.390;2023-04-06T11:12:41;97942.67;;;6.42;46.39
50011;BME280;35899;50.352;19.390;2023-04-06T11:15:12;97943.07;;;6.51;46.18
50011;BME280;35899;50.352;19.390;2023-04-06T11:17:40;97945.21;;;6.46;45.82
50011;BME280;35899;50.352;19.390;2023-04-06T11:20:09;97943.86;;;6.29;45.88
50011;BME280;35899;50.352;19.390;2023-04-06T11:22:48;97944.48;;;6.14;46.78
50011;BME280;35899;50.352;19.390;2023-04-06T11:25:16;97941.00;;;5.88;46.66
50011;BME280;35899;50.352;19.390;2023-04-06T11:27:44;97944.06;;;5.64;46.80
50011;BME280;35899;50.352;19.390;2023-04-06T11:30:13;97943.88;;;5.47;47.38
50011;BME280;35899;50.352;19.390;2023-04-06T11:32:42;97945.07;;;5.43;47.66
50011;BME280;35899;50.352;19.390;2023-04-06T11:35:11;97940.75;;;5.27;47.31
50011;BME280;35899;50.352;19.390;2023-04-06T11:37:39;97945.54;;;4.98;47.61
50011;BME280;35899;50.352;19.390;2023-04-06T11:40:07;97944.02;;;4.79;48.02
50011;BME280;35899;50.352;19.390;2023-04-06T11:42:36;97940.02;;;4.65;48.85
50011;BME280;35899;50.352;19.390;2023-04-06T11:45:04;97941.77;;;4.53;49.39
50011;BME280;35899;50.352;19.390;2023-04-06T11:47:35;97938.88;;;4.45;50.17
50011;BME280;35899;50.352;19.390;2023-04-06T11:50:10;97939.20;;;4.35;50.44
50011;BME280;35899;50.352;19.390;2023-04-06T11:52:39;97939.75;;;4.22;50.97
50011;BME280;35899;50.352;19.390;2023-04-06T11:55:11;97942.67;;;4.10;51.81
50011;BME280;35899;50.352;19.390;2023-04-06T11:57:39;97938.69;;;3.95;52.34
50011;BME280;35899;50.352;19.390;2023-04-06T12:00:08;97944.02;;;3.83;52.58
50011;BME280;35899;50.352;19.390;2023-04-06T12:02:37;97941.67;;;3.68;53.19
50011;BME280;35899;50.352;19.390;2023-04-06T12:05:05;97939.31;;;3.60;53.17
50011;BME280;35899;50.352;19.390;2023-04-06T12:07:34;97935.11;;;3.50;53.55
50011;BME280;35899;50.352;19.390;2023-04-06T12:10:02;97938.48;;;3.39;54.38
50011;BME280;35899;50.352;19.390;2023-04-06T12:12:30;97936.48;;;3.25;55.41
50011;BME280;35899;50.352;19.390;2023-04-06T12:15:01;97935.30;;;3.11;55.54
50011;BME280;35899;50.352;19.390;2023-04-06T12:17:31;97931.42;;;3.05;56.30
50011;BME280;35899;50.352;19.390;2023-04-06T12:20:04;97932.11;;;3.02;57.06
50011;BME280;35899;50.352;19.390;2023-04-06T12:22:59;97928.90;;;2.96;57.61
50011;BME280;35899;50.352;19.390;2023-04-06T12:25:28;97930.09;;;3.01;58.09
50011;BME280;35899;50.352;19.390;2023-04-06T12:28:21;97927.55;;;3.04;58.35
50011;BME280;35899;50.352;19.390;2023-04-06T12:30:50;97924.85;;;2.99;59.06
50011;BME280;35899;50.352;19.390;2023-04-06T12:33:21;97922.61;;;2.86;59.17
50011;BME280;35899;50.352;19.390;2023-04-06T12:35:49;97922.72;;;2.75;60.01
50011;BME280;35899;50.352;19.390;2023-04-06T12:38:21;97919.76;;;2.59;61.04
50011;BME280;35899;50.352;19.390;2023-04-06T12:40:48;97919.94;;;2.49;60.92
50011;BME280;35899;50.352;19.390;2023-04-06T12:43:16;97915.77;;;2.42;61.61
50011;BME280;35899;50.352;19.390;2023-04-06T12:45:44;97914.33;;;2.34;62.54
50011;BME280;35899;50.352;19.390;2023-04-06T12:48:13;97912.84;;;2.28;62.81
50011;BME280;35899;50.352;19.390;2023-04-06T12:50:41;97915.41;;;2.33;63.36
50011;BME280;35899;50.352;19.390;2023-04-06T12:53:09;97915.41;;;2.38;63.47
50011;BME280;35899;50.352;19.390;2023-04-06T12:55:37;97914.94;;;2.37;63.80
50011;BME280;35899;50.352;19.390;2023-04-06T12:58:05;97917.23;;;2.34;64.11
50011;BME280;35899;50.352;19.390;2023-04-06T13:00:34;97914.94;;;2.32;64.82
50011;BME280;35899;50.352;19.390;2023-04-06T13:03:12;97915.00;;;2.25;65.18
50011;BME280;35899;50.352;19.390;2023-04-06T13:05:55;97912.46;;;2.16;65.45
50011;BME280;35899;50.352;19.390;2023-04-06T13:08:23;97915.82;;;2.12;65.66
50011;BME280;35899;50.352;19.390;2023-04-06T13:10:51;97914.45;;;2.08;66.04
50011;BME280;35899;50.352;19.390;2023-04-06T13:13:28;97916.14;;;2.04;66.82
50011;BME280;35899;50.352;19.390;2023-04-06T13:16:01;97919.83;;;1.96;66.96
50011;BME280;35899;50.352;19.390;2023-04-06T13:18:30;97916.31;;;1.84;67.41
50011;BME280;35899;50.352;19.390;2023-04-06T13:20:58;97906.00;;;1.76;68.05
50011;BME280;35899;50.352;19.390;2023-04-06T13:23:28;97890.11;;;1.67;68.34
50011;BME280;35899;50.352;19.390;2023-04-06T13:25:56;97886.96;;;1.60;68.81
50011;BME280;35899;50.352;19.390;2023-04-06T13:28:25;97888.43;;;1.57;69.23
50011;BME280;35899;50.352;19.390;2023-04-06T13:30:53;97880.63;;;1.51;69.78